Laupheim Airport ETHL

Flugplatz Daten

Name: Laupheim Airport

Ident: ETHL

Lat: 48,22029877

Long: 9,910019875

Platzhöhe: 1766 ft

IataCode:

City:

Metar

2021/10/16 18:20
ETHL 161820Z AUTO 07002KT 9999 // ////// 07/05 Q1020 ///

Taf

2021/07/22 05:32
TAF ETHL 220421Z 2205/2220 04005KT 9999 NSW SCT035
Gewünschte Webcam nicht vorhanden? Dann fügen Sie eine hinzu. Sie wird dann so schnell wie möglich freigeschaltet
Url: Title: